createdAt,value
2019-05-30T00:00:40.903Z,1.90
2019-05-30T00:05:46.763Z,2.08
2019-05-30T00:10:52.539Z,2.33
2019-05-30T00:15:58.751Z,2.33
2019-05-30T00:21:04.955Z,2.62
2019-05-30T00:26:10.210Z,2.70
2019-05-30T00:31:14.990Z,3.17
2019-05-30T00:36:19.862Z,8.83
2019-05-30T00:41:25.054Z,4.50
2019-05-30T00:46:30.223Z,5.70
2019-05-30T00:51:35.099Z,5.85
2019-05-30T00:56:40.318Z,6.80
2019-05-30T01:01:45.091Z,7.00
2019-05-30T01:06:49.969Z,6.70
2019-05-30T01:11:54.808Z,7.30
2019-05-30T01:17:01.080Z,7.70
2019-05-30T01:22:07.530Z,9.78
2019-05-30T01:27:12.979Z,9.48
2019-05-30T01:32:30.483Z,9.10
2019-05-30T01:37:35.310Z,9.27
2019-05-30T01:42:40.497Z,10.67
2019-05-30T01:47:46.032Z,11.33
2019-05-30T01:52:51.269Z,11.33
2019-05-30T01:57:56.172Z,11.28
2019-05-30T02:03:01.369Z,11.17
2019-05-30T02:08:07.513Z,12.23
2019-05-30T02:13:12.796Z,12.60
2019-05-30T02:18:17.670Z,11.70
2019-05-30T02:23:22.473Z,12.23
2019-05-30T02:28:27.339Z,11.22
2019-05-30T02:33:32.196Z,11.07
2019-05-30T02:38:37.368Z,10.48
2019-05-30T02:43:43.675Z,12.30
2019-05-30T02:48:58.752Z,10.48
2019-05-30T02:53:55.028Z,11.20
2019-05-30T02:59:01.528Z,9.75
2019-05-30T03:04:08.730Z,10.03
2019-05-30T03:09:14.788Z,10.77
2019-05-30T03:14:20.269Z,10.55
2019-05-30T03:19:26.277Z,10.35
2019-05-30T03:24:31.495Z,9.90
2019-05-30T03:29:36.707Z,11.10
2019-05-30T03:34:42.330Z,12.78
2019-05-30T03:39:48.570Z,11.80
2019-05-30T03:44:53.834Z,12.45
2019-05-30T03:50:00.431Z,12.47
2019-05-30T03:55:06.860Z,14.55
2019-05-30T04:00:26.527Z,14.87
2019-05-30T04:05:40.229Z,17.65
2019-05-30T04:10:48.196Z,18.52
2019-05-30T04:15:53.163Z,20.23
2019-05-30T04:20:58.031Z,21.75
2019-05-30T04:26:03.273Z,20.08
2019-05-30T04:31:09.943Z,22.15
2019-05-30T04:36:17.004Z,22.42
2019-05-30T04:41:22.761Z,22.10
2019-05-30T04:46:27.953Z,20.70
2019-05-30T04:51:32.851Z,21.60
2019-05-30T04:56:37.999Z,20.48
2019-05-30T05:01:42.969Z,21.90
2019-05-30T05:06:49.333Z,20.92
2019-05-30T05:11:54.862Z,20.62
2019-05-30T05:16:59.845Z,19.82
2019-05-30T05:22:04.810Z,21.30
2019-05-30T05:27:10.150Z,19.42
2019-05-30T05:32:18.220Z,18.55
2019-05-30T05:37:23.629Z,24.15
2019-05-30T05:42:30.266Z,19.50
2019-05-30T05:47:35.904Z,17.77
2019-05-30T05:52:41.070Z,19.27
2019-05-30T05:57:47.896Z,18.70
2019-05-30T06:02:55.447Z,19.80
2019-05-30T06:08:00.125Z,20.35
2019-05-30T06:13:05.324Z,20.45
2019-05-30T06:18:11.552Z,21.35
2019-05-30T06:23:17.299Z,20.33
2019-05-30T06:28:22.496Z,22.05
2019-05-30T06:33:29.051Z,18.42
2019-05-30T06:38:35.352Z,19.40
2019-05-30T06:43:40.739Z,18.25
2019-05-30T06:48:46.582Z,17.67
2019-05-30T06:53:51.952Z,17.35
2019-05-30T06:58:57.791Z,15.85
2019-05-30T07:04:03.092Z,14.53
2019-05-30T07:09:15.032Z,13.48
2019-05-30T07:14:35.177Z,12.68
2019-05-30T07:19:48.595Z,11.65
2019-05-30T07:24:54.061Z,11.30
2019-05-30T07:29:59.448Z,10.90
2019-05-30T07:35:07.144Z,10.32
2019-05-30T07:40:19.710Z,10.38
2019-05-30T07:45:31.144Z,9.85
2019-05-30T07:50:39.361Z,9.53
2019-05-30T07:55:45.429Z,9.45
2019-05-30T08:00:50.455Z,10.18
2019-05-30T08:05:55.687Z,9.93
2019-05-30T08:11:09.448Z,9.97
2019-05-30T08:16:08.082Z,10.35
2019-05-30T08:21:13.165Z,9.15
2019-05-30T08:26:18.466Z,9.38
2019-05-30T08:31:24.580Z,9.50
2019-05-30T08:36:30.733Z,9.50
2019-05-30T08:41:37.365Z,10.28
2019-05-30T08:46:43.313Z,9.23
2019-05-30T08:51:49.532Z,9.08
2019-05-30T08:56:54.676Z,10.98
2019-05-30T09:02:02.991Z,10.95
2019-05-30T09:07:08.103Z,9.00
2019-05-30T09:12:15.028Z,9.05
2019-05-30T09:17:20.567Z,9.33
2019-05-30T09:22:25.557Z,8.58
2019-05-30T09:27:30.587Z,8.70
2019-05-30T09:32:35.893Z,10.53
2019-05-30T09:37:44.490Z,9.28
2019-05-30T09:42:50.803Z,8.90
2019-05-30T09:47:55.786Z,8.40
2019-05-30T09:53:00.769Z,7.65
2019-05-30T09:58:05.930Z,8.23
2019-05-30T10:03:10.923Z,7.45
2019-05-30T10:08:15.992Z,7.65
2019-05-30T10:13:21.297Z,10.13
2019-05-30T10:18:26.459Z,9.43
2019-05-30T10:23:31.498Z,10.35
2019-05-30T10:28:36.487Z,9.50
2019-05-30T10:33:41.408Z,10.23
2019-05-30T10:38:47.428Z,10.68
2019-05-30T10:43:53.211Z,9.08
2019-05-30T10:48:58.180Z,7.78
2019-05-30T10:54:04.119Z,7.90
2019-05-30T10:59:10.045Z,8.73
2019-05-30T11:04:15.034Z,8.45
2019-05-30T11:09:23.074Z,8.63
2019-05-30T11:14:28.708Z,10.05
2019-05-30T11:19:33.606Z,10.38
2019-05-30T11:24:38.522Z,11.25
2019-05-30T11:29:43.519Z,12.25
2019-05-30T11:34:51.070Z,11.83
2019-05-30T11:39:57.250Z,11.38
2019-05-30T11:45:02.738Z,9.88
2019-05-30T11:50:08.575Z,9.18
2019-05-30T11:55:15.005Z,9.80
2019-05-30T12:00:20.293Z,10.50
2019-05-30T12:05:25.950Z,10.65
2019-05-30T12:10:32.376Z,10.98
2019-05-30T12:15:37.768Z,11.12
2019-05-30T12:20:43.385Z,11.95
2019-05-30T12:25:48.853Z,12.63
2019-05-30T12:30:59.095Z,11.53
2019-05-30T12:36:02.687Z,11.28
2019-05-30T12:41:09.005Z,11.75
2019-05-30T12:46:14.383Z,10.20
2019-05-30T12:51:19.735Z,11.22
2019-05-30T12:56:28.175Z,10.95
2019-05-30T13:01:33.274Z,10.45
2019-05-30T13:06:40.631Z,10.08
2019-05-30T13:11:45.565Z,10.85
2019-05-30T13:16:50.760Z,10.23
2019-05-30T13:21:57.042Z,10.40
2019-05-30T13:27:03.945Z,9.75
2019-05-30T13:32:09.017Z,11.38
2019-05-30T13:37:14.554Z,10.60
2019-05-30T13:42:19.583Z,10.65
2019-05-30T13:47:24.785Z,10.45
2019-05-30T13:52:30.422Z,9.68
2019-05-30T13:57:35.984Z,9.65
2019-05-30T14:02:43.446Z,8.25
2019-05-30T14:07:48.461Z,7.67
2019-05-30T14:12:54.372Z,6.70
2019-05-30T14:18:04.986Z,6.65
2019-05-30T14:23:13.666Z,5.05
2019-05-30T14:28:19.172Z,4.92
2019-05-30T14:33:24.163Z,4.65
2019-05-30T14:38:30.706Z,4.22
2019-05-30T14:43:36.529Z,4.42
2019-05-30T14:48:41.570Z,4.90
2019-05-30T14:53:46.484Z,4.35
2019-05-30T14:58:54.056Z,5.33
2019-05-30T15:03:58.939Z,5.47
2019-05-30T15:09:15.204Z,4.62
2019-05-30T15:14:13.935Z,4.37
2019-05-30T15:19:18.710Z,3.70
2019-05-30T15:24:24.007Z,3.00
2019-05-30T15:29:28.840Z,2.35
2019-05-30T15:34:34.063Z,2.80
2019-05-30T15:39:38.978Z,2.92
2019-05-30T15:44:45.181Z,3.20
2019-05-30T15:49:52.320Z,3.10
2019-05-30T15:54:57.328Z,3.50
2019-05-30T16:00:02.516Z,3.90
2019-05-30T16:05:10.613Z,4.37
2019-05-30T16:10:17.005Z,3.92
2019-05-30T16:15:22.157Z,4.10
2019-05-30T16:20:27.049Z,3.77
2019-05-30T16:25:32.695Z,3.60
2019-05-30T16:30:38.383Z,3.67
2019-05-30T16:35:44.608Z,4.33
2019-05-30T16:40:49.487Z,3.70
2019-05-30T16:45:54.296Z,3.15
2019-05-30T16:50:59.094Z,3.40
2019-05-30T16:56:04.051Z,3.40
2019-05-30T17:01:08.903Z,3.05
2019-05-30T17:06:14.284Z,3.20
2019-05-30T17:11:26.045Z,3.83
2019-05-30T17:16:33.160Z,5.50
2019-05-30T17:21:38.208Z,4.40
2019-05-30T17:26:45.407Z,4.90
2019-05-30T17:31:50.297Z,4.37
2019-05-30T17:36:55.407Z,3.52
2019-05-30T17:42:01.038Z,4.30
2019-05-30T17:47:05.852Z,4.45
2019-05-30T17:52:10.872Z,4.15
2019-05-30T17:57:15.771Z,3.65
2019-05-30T18:02:20.595Z,4.42
2019-05-30T18:07:25.480Z,3.92
2019-05-30T18:12:31.235Z,3.75
2019-05-30T18:17:36.140Z,3.70
2019-05-30T18:22:41.111Z,3.85
2019-05-30T18:27:47.133Z,4.00
2019-05-30T18:32:52.218Z,4.05
2019-05-30T18:38:01.766Z,3.95
2019-05-30T18:43:06.066Z,4.00
2019-05-30T18:48:12.195Z,3.58
2019-05-30T18:53:18.136Z,4.20
2019-05-30T18:58:23.004Z,4.08
2019-05-30T19:03:28.703Z,3.47
2019-05-30T19:08:36.157Z,3.62
2019-05-30T19:13:43.640Z,3.47
2019-05-30T19:18:49.032Z,3.72
2019-05-30T19:23:56.777Z,5.25
2019-05-30T19:29:02.419Z,5.92
2019-05-30T19:34:07.393Z,4.47
2019-05-30T19:39:12.643Z,3.98
2019-05-30T19:44:17.855Z,3.45
2019-05-30T19:49:23.514Z,3.37
2019-05-30T19:54:30.843Z,3.33
2019-05-30T19:59:36.319Z,3.30
2019-05-30T20:04:42.603Z,3.47
2019-05-30T20:10:00.858Z,3.70
2019-05-30T20:14:56.769Z,3.33
2019-05-30T20:20:02.489Z,3.92
2019-05-30T20:25:09.921Z,3.30
2019-05-30T20:30:18.146Z,3.40
2019-05-30T20:35:23.279Z,3.35
2019-05-30T20:40:28.401Z,3.72
2019-05-30T20:45:42.004Z,3.62
2019-05-30T20:50:45.806Z,3.37
2019-05-30T20:55:51.670Z,4.08
2019-05-30T21:00:56.454Z,3.58
2019-05-30T21:06:01.478Z,3.45
2019-05-30T21:11:08.503Z,3.72
2019-05-30T21:16:15.784Z,4.47
2019-05-30T21:21:20.592Z,3.50
2019-05-30T21:26:25.499Z,3.75
2019-05-30T21:31:30.741Z,4.22
2019-05-30T21:36:36.011Z,4.17
2019-05-30T21:41:42.173Z,4.10
2019-05-30T21:46:48.914Z,3.42
2019-05-30T21:51:55.083Z,4.03
2019-05-30T21:57:00.163Z,4.37
2019-05-30T22:02:05.657Z,4.95
2019-05-30T22:07:10.906Z,3.98
2019-05-30T22:12:16.021Z,3.70
2019-05-30T22:17:21.071Z,4.72
2019-05-30T22:22:25.906Z,4.12
2019-05-30T22:27:31.091Z,4.00
2019-05-30T22:32:36.668Z,3.67
2019-05-30T22:37:48.931Z,3.98
2019-05-30T22:42:54.806Z,3.67
2019-05-30T22:47:59.823Z,3.33
2019-05-30T22:53:05.029Z,3.70
2019-05-30T22:58:10.031Z,3.98
2019-05-30T23:03:15.024Z,3.92
2019-05-30T23:08:20.084Z,4.42
2019-05-30T23:13:37.728Z,4.15
2019-05-30T23:18:31.924Z,4.60
2019-05-30T23:23:36.883Z,4.60
